Skip to main content

Santa Maria / Praia Formosa (DROTRH)

ID 11217160 · 36.9542, -25.0917 map

Latest reading · 2026-05-09 19:00 (Europe/Lisbon)

Temperature
14.0 °C
Humidity
87 %
Pressure
Precipitation
Radiation
Wind speed
Wind direction
No wind

24-hour history

Time (Europe/Lisbon) Temp Humidity Pressure Rain Wind Dir
2026-05-09 19:00 14.0 °C 87 %
2026-05-09 18:00 12.7 °C 91 % 0.4 mm 27.0 km/h E
2026-05-09 17:00 13.8 °C 78 % 0.2 mm 23.4 km/h E
2026-05-09 16:00 14.0 °C 70 % 0.0 mm 35.6 km/h NE
2026-05-09 15:00 14.6 °C 60 % 0.0 mm 28.4 km/h E
2026-05-09 14:00 14.6 °C 57 % 0.0 mm 30.2 km/h E
2026-05-09 13:00 13.9 °C 66 % 0.0 mm 22.0 km/h E
2026-05-09 12:00 13.7 °C 62 % 0.1 mm 23.0 km/h E
2026-05-09 11:00 12.7 °C 68 % 0.0 mm 19.1 km/h E
2026-05-09 10:00 11.9 °C 74 % 0.0 mm 16.9 km/h E
2026-05-09 09:00 11.8 °C 75 % 0.0 mm 15.8 km/h E
2026-05-09 08:00 11.7 °C 72 % 0.0 mm 14.4 km/h E
2026-05-09 07:00 12.0 °C 75 % 0.0 mm 15.8 km/h E
2026-05-09 06:00 12.1 °C 71 % 0.0 mm 15.5 km/h E
2026-05-09 05:00 12.4 °C 71 % 0.0 mm 20.9 km/h E
2026-05-09 04:00 12.2 °C 80 % 0.1 mm 18.7 km/h E
2026-05-09 03:00 12.8 °C 80 % 0.0 mm 14.8 km/h E
2026-05-09 02:00 13.1 °C 85 % 0.0 mm 12.6 km/h E
2026-05-09 01:00 13.0 °C 87 % 0.0 mm 19.4 km/h E
2026-05-09 00:00 12.9 °C 88 % 0.1 mm 24.1 km/h E
2026-05-08 23:00 13.7 °C 87 % 0.3 mm 22.3 km/h E
2026-05-08 22:00 14.2 °C 82 % 0.0 mm 18.4 km/h E
2026-05-08 21:00 14.9 °C 79 % 0.0 mm 23.0 km/h E
2026-05-08 20:00 15.5 °C 76 % 0.0 mm 17.6 km/h E